Time;durP1;ratioP1;P1;durP2;ratioP2;P2;SDS_P1;SDS_P2;PMS_P1;PMS_P2;Temp;Humidity;BMP_temperature;BMP_pressure;BME280_temperature;BME280_humidity;BME280_pressure;Samples;Min_cycle;Max_cycle;Signal;HPM_P1;HPM_P2
2023/01/27 00:00:18;;;;;;;38.97;19.23;;;;;;;0.51;100.00;101380.72;698196;28;1185;-63
2023/01/27 00:00:38;;;;;;;39.67;19.35;;;;;;;0.51;100.00;101388.44;700416;28;1123;-63
2023/01/27 00:00:59;;;;;;;40.70;18.97;;;;;;;0.50;100.00;101394.44;698694;28;4279;-64
2023/01/27 00:01:19;;;;;;;39.60;18.98;;;;;;;0.49;100.00;101382.38;700366;28;1257;-63
2023/01/27 00:01:39;;;;;;;37.23;19.80;;;;;;;0.48;100.00;101380.59;698031;28;1158;-64
2023/01/27 00:02:00;;;;;;;37.80;19.30;;;;;;;0.47;100.00;101382.28;696909;28;3344;-64
2023/01/27 00:02:20;;;;;;;37.70;19.70;;;;;;;0.47;100.00;101384.88;697721;28;1257;-63
2023/01/27 00:02:42;;;;;;;38.50;19.48;;;;;;;0.48;100.00;101388.31;697875;28;1091;-63
2023/01/27 00:03:02;;;;;;;38.78;19.15;;;;;;;0.48;100.00;101388.31;692759;28;1295;-65
2023/01/27 00:03:23;;;;;;;36.67;18.83;;;;;;;0.49;100.00;101382.38;694507;28;1300;-63
2023/01/27 00:03:44;;;;;;;38.60;19.25;;;;;;;0.50;100.00;101390.16;694233;28;4579;-64
2023/01/27 00:04:04;;;;;;;34.83;18.50;;;;;;;0.49;100.00;101387.50;695101;28;1082;-64
2023/01/27 00:04:28;;;;;;;42.15;19.83;;;;;;;0.50;100.00;101379.84;690642;28;1167;-64
2023/01/27 00:04:48;;;;;;;40.80;20.17;;;;;;;0.51;100.00;101380.72;689170;28;3317;-64
2023/01/27 00:05:11;;;;;;;34.90;18.97;;;;;;;0.50;100.00;101386.72;692947;28;1910;-64
2023/01/27 00:05:31;;;;;;;34.63;18.73;;;;;;;0.49;100.00;101387.50;694252;28;2052;-64
2023/01/27 00:05:52;;;;;;;35.33;18.83;;;;;;;0.49;100.00;101387.50;694609;28;1395;-64
2023/01/27 00:06:12;;;;;;;34.97;18.27;;;;;;;0.49;100.00;101387.50;695272;28;963;-63
2023/01/27 00:06:35;;;;;;;32.97;17.30;;;;;;;0.49;100.00;101388.38;697981;28;1513;-65
2023/01/27 00:06:55;;;;;;;35.75;18.25;;;;;;;0.49;100.00;101387.50;696490;28;4303;-64
2023/01/27 00:07:16;;;;;;;37.00;19.63;;;;;;;0.49;100.00;101392.66;695259;28;1204;-64
2023/01/27 00:07:36;;;;;;;37.53;19.20;;;;;;;0.48;100.00;101384.03;695315;28;1336;-63
2023/01/27 00:07:59;;;;;;;40.42;19.30;;;;;;;0.49;100.00;101392.66;694612;28;1086;-65
2023/01/27 00:08:20;;;;;;;37.08;18.70;;;;;;;0.47;100.00;101384.88;696037;28;1111;-63
2023/01/27 00:08:40;;;;;;;42.93;19.30;;;;;;;0.47;100.00;101387.44;696953;28;3562;-64
2023/01/27 00:09:00;;;;;;;43.47;19.27;;;;;;;0.48;100.00;101388.31;697706;28;1082;-65
2023/01/27 00:09:21;;;;;;;38.13;19.40;;;;;;;0.47;100.00;101389.09;697479;28;1352;-63
2023/01/27 00:09:41;;;;;;;40.10;19.17;;;;;;;0.49;100.00;101384.94;697162;28;4283;-64
2023/01/27 00:10:03;;;;;;;41.87;18.80;;;;;;;0.50;100.00;101384.13;699998;28;1381;-63
2023/01/27 00:10:24;;;;;;;43.60;19.10;;;;;;;0.54;100.00;101387.72;700659;28;1006;-64
2023/01/27 00:10:44;;;;;;;40.35;18.80;;;;;;;0.52;100.00;101391.91;700660;28;1122;-63
2023/01/27 00:13:42;;;;;;;32.54;17.80;;;;;;;0.48;100.00;101388.31;700233;28;1233;-64
2023/01/27 00:14:02;;;;;;;33.27;17.50;;;;;;;0.47;100.00;101384.88;699700;28;1441;-62
2023/01/27 00:14:23;;;;;;;36.37;18.50;;;;;;;0.48;100.00;101383.16;701030;28;1336;-64
2023/01/27 00:14:43;;;;;;;35.83;18.45;;;;;;;0.49;100.00;101387.50;697134;28;3418;-62
2023/01/27 00:15:05;;;;;;;32.90;17.80;;;;;;;0.48;100.00;101389.19;697349;28;896;-64
2023/01/27 00:15:26;;;;;;;32.88;18.02;;;;;;;0.48;100.00;101384.03;697489;28;1032;-63
2023/01/27 00:15:47;;;;;;;37.58;18.60;;;;;;;0.50;100.00;101390.16;697427;28;4452;-63
2023/01/27 00:16:07;;;;;;;42.33;19.17;;;;;;;0.49;100.00;101379.78;694262;28;1164;-64
2023/01/27 00:16:27;;;;;;;37.87;19.00;;;;;;;0.50;100.00;101385.00;692660;28;1215;-63
2023/01/27 00:16:48;;;;;;;36.00;18.80;;;;;;;0.52;100.00;101382.50;693371;28;1131;-64
2023/01/27 00:17:08;;;;;;;35.87;18.40;;;;;;;0.52;100.00;101382.50;690461;28;1208;-63
2023/01/27 00:17:28;;;;;;;35.75;18.40;;;;;;;0.52;100.00;101385.06;688813;28;3580;-63
2023/01/27 00:17:49;;;;;;;35.10;17.90;;;;;;;0.53;100.00;101378.22;691514;28;1095;-63
2023/01/27 00:18:09;;;;;;;38.40;18.23;;;;;;;0.53;100.00;101385.94;692269;28;929;-64
2023/01/27 00:18:30;;;;;;;36.97;18.17;;;;;;;0.54;100.00;101388.63;695259;28;1087;-64
2023/01/27 00:18:50;;;;;;;39.97;18.90;;;;;;;0.53;100.00;101381.69;697826;28;4270;-64
2023/01/27 00:19:11;;;;;;;37.40;18.53;;;;;;;0.56;100.00;101378.41;694762;28;1340;-64
2023/01/27 00:19:31;;;;;;;35.20;17.73;;;;;;;0.55;100.00;101374.91;695347;28;1091;-64
2023/01/27 00:19:51;;;;;;;36.40;18.07;;;;;;;0.57;100.00;101380.13;695278;28;1234;-63
2023/01/27 00:20:12;;;;;;;34.70;17.77;;;;;;;0.56;100.00;101378.41;693362;28;3696;-63
2023/01/27 00:24:34;;;;;;;38.03;17.42;;;;;;;0.76;100.00;101376.75;699902;28;1106;-64
2023/01/27 00:24:55;;;;;;;35.63;17.27;;;;;;;0.77;100.00;101381.97;696602;28;4382;-64
2023/01/27 00:25:16;;;;;;;36.40;17.27;;;;;;;0.81;100.00;101380.41;696569;28;2244;-63
2023/01/27 00:25:36;;;;;;;33.45;17.13;;;;;;;0.86;100.00;101386.66;691485;28;1263;-62
2023/01/27 00:25:59;;;;;;;34.80;17.20;;;;;;;0.86;100.00;101384.09;691555;28;1137;-64
2023/01/27 00:26:19;;;;;;;36.83;16.10;;;;;;;0.84;100.00;101376.31;691688;28;1254;-64
2023/01/27 00:26:39;;;;;;;32.53;15.63;;;;;;;0.83;100.00;101379.69;691029;28;3422;-63
2023/01/27 00:27:01;;;;;;;32.57;16.10;;;;;;;0.82;100.00;101382.19;689178;28;1207;-63
2023/01/27 00:27:22;;;;;;;31.08;16.25;;;;;;;0.81;100.00;101380.41;690102;28;1266;-63
2023/01/27 00:27:43;;;;;;;29.70;15.70;;;;;;;0.80;100.00;101383.78;691979;28;4354;-63
2023/01/27 00:28:04;;;;;;;31.42;15.90;;;;;;;0.78;100.00;101382.84;691754;28;1000;-63
2023/01/27 00:28:26;;;;;;;30.95;16.05;;;;;;;0.77;100.00;101381.09;687000;28;1519;-64
2023/01/27 00:28:47;;;;;;;30.17;16.35;;;;;;;0.77;100.00;101386.25;687062;28;1691;-62
2023/01/27 00:29:07;;;;;;;30.08;15.80;;;;;;;0.77;100.00;101388.81;687320;28;2051;-63
2023/01/27 00:29:27;;;;;;;29.73;15.30;;;;;;;0.77;100.00;101383.66;689338;28;3519;-64
2023/01/27 00:29:48;;;;;;;32.00;16.05;;;;;;;0.77;100.00;101381.09;686527;28;1454;-62
2023/01/27 00:30:11;;;;;;;34.03;16.23;;;;;;;0.77;100.00;101383.66;687078;28;1261;-63
2023/01/27 00:30:31;;;;;;;36.08;16.80;;;;;;;0.77;100.00;101378.50;691940;28;1088;-62
2023/01/27 00:30:51;;;;;;;36.15;16.23;;;;;;;0.77;100.00;101384.53;693276;28;4273;-63
2023/01/27 00:33:29;;;;;;;33.72;16.50;;;;;;;0.91;100.00;101387.75;696915;28;1457;-64
2023/01/27 00:33:52;;;;;;;33.05;15.30;;;;;;;0.93;100.00;101386.13;694893;28;4477;-64
2023/01/27 00:34:13;;;;;;;37.08;15.77;;;;;;;0.92;100.00;101384.38;696741;28;1249;-64
2023/01/27 00:34:33;;;;;;;31.47;15.77;;;;;;;0.99;100.00;101385.53;693920;28;1179;-63
2023/01/27 00:34:53;;;;;;;30.50;15.40;;;;;;;0.99;100.00;101386.41;689353;28;1233;-63
2023/01/27 00:35:17;;;;;;;32.73;15.80;;;;;;;1.04;100.00;101378.00;689135;28;1262;-64
2023/01/27 00:35:38;;;;;;;28.25;15.25;;;;;;;1.04;100.00;101383.16;692578;28;1037;-64
2023/01/27 00:36:06;;;;;;;28.40;14.97;;;;;;;1.00;100.00;101377.88;691939;28;1144;-63
2023/01/27 00:36:28;;;;;;;28.92;14.68;;;;;;;1.05;100.00;101379.78;692183;28;3695;-63
2023/01/27 00:36:48;;;;;;;33.58;15.27;;;;;;;1.09;100.00;101392.84;690958;28;4382;-63
2023/01/27 00:37:09;;;;;;;32.23;15.13;;;;;;;1.06;100.00;101382.41;692198;28;1225;-64
2023/01/27 00:37:29;;;;;;;26.90;14.77;;;;;;;1.04;100.00;101384.06;693623;28;1076;-63
2023/01/27 00:37:50;;;;;;;27.47;14.27;;;;;;;1.04;100.00;101383.16;695154;28;1449;-63
2023/01/27 00:38:10;;;;;;;29.23;14.38;;;;;;;1.02;100.00;101386.56;694344;28;1126;-63
2023/01/27 00:38:39;;;;;;;28.47;14.33;;;;;;;1.00;100.00;101383.03;693903;28;1162;-65
2023/01/27 00:38:59;;;;;;;27.80;14.88;;;;;;;1.01;100.00;101379.66;695903;28;4971;-63
2023/01/27 00:39:20;;;;;;;28.35;14.73;;;;;;;1.00;100.00;101384.72;696300;28;1490;-64
2023/01/27 00:39:40;;;;;;;24.43;13.90;;;;;;;0.99;100.00;101381.25;694501;28;4484;-64
2023/01/27 00:40:03;;;;;;;29.92;14.35;;;;;;;0.97;100.00;101382.91;692161;28;1303;-64
2023/01/27 00:40:26;;;;;;;31.90;14.20;;;;;;;0.96;100.00;101381.13;689353;28;1432;-64
2023/01/27 00:41:14;;;;;;;31.27;14.75;;;;;;;0.96;100.00;101385.41;689614;28;1092;-64
2023/01/27 00:41:28;;;;;;;29.13;14.68;;;;;;;1.06;100.00;101381.56;692956;28;1127;-63
2023/01/27 00:41:48;;;;;;;25.13;14.13;;;;;;;1.06;100.00;101377.28;692322;28;1065;-64
2023/01/27 00:42:09;;;;;;;23.30;13.90;;;;;;;1.10;100.00;101383.47;692497;28;1146;-64
2023/01/27 00:42:29;;;;;;;28.13;14.15;;;;;;;1.13;100.00;101381.00;696220;28;3775;-65
2023/01/27 00:42:49;;;;;;;28.30;14.23;;;;;;;1.18;100.00;101384.69;694707;28;4550;-62
2023/01/27 00:43:10;;;;;;;28.33;14.03;;;;;;;1.22;100.00;101377.97;694900;28;1066;-63
2023/01/27 00:43:30;;;;;;;28.92;13.63;;;;;;;1.23;100.00;101385.75;693203;28;1196;-63
2023/01/27 00:43:52;;;;;;;27.85;13.65;;;;;;;1.28;100.00;101381.69;693321;28;1202;-63
2023/01/27 00:44:12;;;;;;;29.73;14.52;;;;;;;1.30;100.00;101380.09;691156;28;1360;-63
2023/01/27 00:44:33;;;;;;;25.45;13.57;;;;;;;1.32;100.00;101383.59;689649;28;1451;-63
2023/01/27 00:45:48;;;;;;;25.58;13.18;;;;;;;1.34;100.00;101379.41;690066;28;1138;-65
2023/01/27 00:46:08;;;;;;;24.02;13.18;;;;;;;1.33;100.00;101382.78;689696;28;4727;-63
2023/01/27 00:46:32;;;;;;;25.10;13.10;;;;;;;1.35;100.00;101377.69;692845;28;1329;-65
2023/01/27 00:46:52;;;;;;;26.52;13.40;;;;;;;1.31;100.00;101379.25;692963;28;1083;-63
2023/01/27 00:47:12;;;;;;;25.67;13.33;;;;;;;1.29;100.00;101386.03;694095;28;1082;-63
2023/01/27 00:47:33;;;;;;;26.03;13.13;;;;;;;1.28;100.00;101381.69;694053;28;1167;-64
2023/01/27 00:47:53;;;;;;;28.27;13.20;;;;;;;1.28;100.00;101383.41;694902;28;1148;-63
2023/01/27 00:48:14;;;;;;;24.95;13.23;;;;;;;1.32;100.00;101385.31;690577;28;1267;-63
2023/01/27 00:48:35;;;;;;;22.70;12.77;;;;;;;1.29;100.00;101383.47;692421;28;1277;-62
2023/01/27 00:48:56;;;;;;;23.55;12.77;;;;;;;1.33;100.00;101385.38;688258;28;4522;-63
2023/01/27 00:49:17;;;;;;;23.67;12.43;;;;;;;1.35;100.00;101381.16;689339;28;1144;-63
2023/01/27 00:49:41;;;;;;;24.27;12.17;;;;;;;1.39;100.00;101382.19;689045;28;3418;-62
2023/01/27 00:50:02;;;;;;;25.35;12.63;;;;;;;1.46;100.00;101391.06;690577;28;1323;-62
2023/01/27 00:50:23;;;;;;;23.50;12.70;;;;;;;1.55;100.00;101383.72;692258;28;1490;-62
2023/01/27 00:50:43;;;;;;;24.30;12.57;;;;;;;1.49;100.00;101384.31;695239;28;778;-64
2023/01/27 00:51:04;;;;;;;26.67;12.83;;;;;;;1.44;100.00;101390.09;696451;28;1152;-63
2023/01/27 00:51:25;;;;;;;24.30;12.70;;;;;;;1.46;100.00;101383.34;693031;28;1368;-62
2023/01/27 00:51:45;;;;;;;26.07;12.80;;;;;;;1.46;100.00;101384.19;693691;28;4366;-62
2023/01/27 00:52:05;;;;;;;25.27;13.07;;;;;;;1.46;100.00;101384.19;695174;28;1157;-64
2023/01/27 00:52:26;;;;;;;25.80;12.53;;;;;;;1.57;100.00;101374.38;692021;28;1335;-64
2023/01/27 00:52:46;;;;;;;25.27;12.40;;;;;;;1.59;100.00;101377.00;692034;28;1150;-62
2023/01/27 00:53:07;;;;;;;22.73;12.45;;;;;;;1.66;100.00;101377.34;691347;28;1167;-63
2023/01/27 00:53:27;;;;;;;22.90;11.90;;;;;;;1.65;100.00;101385.88;696563;28;1332;-63
2023/01/27 00:53:47;;;;;;;22.60;12.27;;;;;;;1.66;100.00;101381.59;695135;28;1257;-63
2023/01/27 00:54:13;;;;;;;22.98;12.55;;;;;;;1.58;100.00;101388.13;690879;28;3559;-63
2023/01/27 00:54:33;;;;;;;25.75;12.73;;;;;;;1.63;100.00;101397.81;687959;28;1249;-63
2023/01/27 00:54:54;;;;;;;24.00;12.23;;;;;;;1.68;100.00;101392.88;687995;28;4513;-63
2023/01/27 00:55:14;;;;;;;20.63;12.20;;;;;;;1.65;100.00;101385.03;687362;28;1430;-62
2023/01/27 00:55:35;;;;;;;22.70;12.63;;;;;;;1.69;100.00;101386.91;689785;28;1120;-63
2023/01/27 00:55:57;;;;;;;24.75;12.98;;;;;;;1.69;100.00;101385.22;691248;28;1160;-64
2023/01/27 00:56:18;;;;;;;25.30;12.68;;;;;;;1.75;100.00;101388.88;692448;28;1251;-64
2023/01/27 00:56:38;;;;;;;24.85;11.52;;;;;;;1.80;100.00;101389.94;694191;28;3307;-63
2023/01/27 00:56:59;;;;;;;24.93;12.60;;;;;;;1.75;100.00;101391.44;694603;28;1334;-64
2023/01/27 00:57:19;;;;;;;25.87;12.70;;;;;;;1.69;100.00;101398.09;691977;28;1302;-62
2023/01/27 00:57:39;;;;;;;25.13;12.90;;;;;;;1.61;100.00;101389.16;691939;28;4323;-64
2023/01/27 00:58:00;;;;;;;23.60;12.32;;;;;;;1.54;100.00;101392.28;689764;28;1406;-64
2023/01/27 00:58:21;;;;;;;25.87;12.57;;;;;;;1.49;100.00;101391.19;690014;28;1355;-63
2023/01/27 00:58:41;;;;;;;23.30;12.25;;;;;;;1.48;100.00;101397.16;689478;28;1286;-63
2023/01/27 00:59:02;;;;;;;25.85;13.02;;;;;;;1.43;100.00;101393.50;686388;28;1133;-64
2023/01/27 00:59:23;;;;;;;25.90;12.85;;;;;;;1.43;100.00;101388.34;687366;28;1195;-63
2023/01/27 00:59:43;;;;;;;26.27;13.13;;;;;;;1.45;100.00;101391.88;688415;28;3665;-63
2023/01/27 01:00:05;;;;;;;26.77;12.93;;;;;;;1.43;100.00;101388.34;689229;28;1116;-63
2023/01/27 01:00:25;;;;;;;25.17;13.40;;;;;;;1.43;100.00;101391.81;686858;28;1535;-63
2023/01/27 01:00:46;;;;;;;25.57;13.20;;;;;;;1.41;100.00;101395.13;686298;28;4320;-64
2023/01/27 01:01:09;;;;;;;27.07;13.87;;;;;;;1.42;100.00;101394.31;686338;28;1201;-64
2023/01/27 01:01:29;;;;;;;26.48;13.85;;;;;;;1.38;100.00;101389.84;687817;28;1088;-63
2023/01/27 01:01:50;;;;;;;27.70;14.10;;;;;;;1.40;100.00;101393.34;687475;28;1284;-64
2023/01/27 01:02:10;;;;;;;27.73;13.33;;;;;;;1.36;100.00;101390.66;690499;28;1161;-63
2023/01/27 01:02:31;;;;;;;26.70;13.07;;;;;;;1.38;100.00;101400.16;692015;28;872;-63
2023/01/27 01:02:52;;;;;;;28.25;13.40;;;;;;;1.41;100.00;101390.84;694615;28;1148;-63
2023/01/27 01:03:15;;;;;;;29.35;13.57;;;;;;;1.42;100.00;101396.91;692036;28;1418;-63
2023/01/27 01:03:35;;;;;;;25.80;12.95;;;;;;;1.42;100.00;101400.34;692203;28;3534;-63
2023/01/27 01:03:57;;;;;;;24.23;12.98;;;;;;;1.40;100.00;101394.25;693981;28;4240;-64
2023/01/27 01:04:18;;;;;;;25.38;13.95;;;;;;;1.55;100.00;101403.47;695146;28;1251;-63
2023/01/27 01:04:39;;;;;;;27.02;13.60;;;;;;;1.56;100.00;101398.38;692161;28;1453;-62
2023/01/27 01:05:00;;;;;;;25.73;13.53;;;;;;;1.53;100.00;101403.41;693615;28;1979;-64
2023/01/27 01:05:22;;;;;;;26.10;14.05;;;;;;;1.48;100.00;101403.22;696279;28;1162;-63
2023/01/27 01:05:43;;;;;;;28.50;13.70;;;;;;;1.47;100.00;101401.44;697586;28;1311;-63
2023/01/27 01:06:06;;;;;;;26.58;12.88;;;;;;;1.44;100.00;101400.41;697113;28;1647;-63
2023/01/27 01:06:27;;;;;;;26.27;12.30;;;;;;;1.41;100.00;101410.59;693687;28;3917;-63
2023/01/27 01:06:47;;;;;;;25.80;12.93;;;;;;;1.42;100.00;101404.63;687331;28;4424;-63
2023/01/27 01:07:07;;;;;;;26.80;12.93;;;;;;;1.49;100.00;101406.66;686132;28;1216;-63
2023/01/27 01:07:28;;;;;;;25.42;12.98;;;;;;;1.43;100.00;101398.66;683846;28;1282;-63
2023/01/27 01:07:48;;;;;;;27.03;12.97;;;;;;;1.51;100.00;101398.19;686459;28;1171;-63
2023/01/27 01:08:09;;;;;;;26.73;12.77;;;;;;;1.59;100.00;101410.50;689410;28;1220;-62
2023/01/27 01:08:31;;;;;;;23.70;12.40;;;;;;;1.59;100.00;101401.06;689354;28;1299;-63
2023/01/27 01:08:51;;;;;;;24.33;12.52;;;;;;;1.53;100.00;101400.81;689009;28;1413;-63
2023/01/27 01:09:11;;;;;;;25.23;12.82;;;;;;;1.49;100.00;101410.09;689311;28;1185;-63
2023/01/27 01:09:32;;;;;;;24.03;13.00;;;;;;;1.51;100.00;101410.19;688257;28;3383;-63
2023/01/27 01:09:52;;;;;;;23.52;12.50;;;;;;;1.50;100.00;101400.69;687722;28;4429;-64
2023/01/27 01:10:12;;;;;;;23.43;12.30;;;;;;;1.51;100.00;101411.06;688609;28;1160;-63
2023/01/27 01:10:33;;;;;;;23.70;11.63;;;;;;;1.60;100.00;101407.13;688916;28;1269;-63
2023/01/27 01:10:53;;;;;;;22.27;11.70;;;;;;;1.56;100.00;101403.53;685863;28;1380;-63
2023/01/27 01:11:16;;;;;;;23.47;12.07;;;;;;;1.51;100.00;101403.34;691472;28;1267;-62
2023/01/27 01:11:36;;;;;;;23.90;12.18;;;;;;;1.42;100.00;101407.19;692086;28;1396;-64
2023/01/27 01:11:57;;;;;;;22.83;12.07;;;;;;;1.45;100.00;101403.03;689729;28;1211;-63
2023/01/27 01:12:17;;;;;;;24.47;12.87;;;;;;;1.59;100.00;101406.22;689828;28;1070;-63
2023/01/27 01:12:37;;;;;;;26.43;13.03;;;;;;;1.56;100.00;101411.25;689636;28;1287;-63
2023/01/27 01:12:58;;;;;;;25.13;13.00;;;;;;;1.52;100.00;101411.94;685634;28;4635;-63
2023/01/27 01:13:18;;;;;;;25.63;13.03;;;;;;;1.51;100.00;101405.03;685422;28;1393;-64
2023/01/27 01:13:40;;;;;;;23.08;12.60;;;;;;;1.49;100.00;101411.81;686321;28;1339;-63
2023/01/27 01:14:00;;;;;;;22.98;12.35;;;;;;;1.49;100.00;101412.69;688938;28;1080;-63
2023/01/27 01:14:21;;;;;;;25.83;12.90;;;;;;;1.46;100.00;101407.41;688336;28;1204;-63
2023/01/27 01:14:41;;;;;;;26.42;12.65;;;;;;;1.45;100.00;101410.78;688339;28;1290;-63
2023/01/27 01:15:02;;;;;;;25.60;12.73;;;;;;;1.42;100.00;101407.19;690505;28;1205;-63
2023/01/27 01:15:22;;;;;;;23.98;12.23;;;;;;;1.50;100.00;101400.69;690513;28;1603;-63
2023/01/27 01:15:44;;;;;;;24.73;12.52;;;;;;;1.58;100.00;101407.06;688856;28;4355;-62
2023/01/27 01:16:18;;;;;;;27.30;12.35;;;;;;;1.59;100.00;101411.38;691178;28;1260;-64
2023/01/27 01:16:38;;;;;;;24.90;12.88;;;;;;;1.63;100.00;101407.25;693679;28;3327;-64
2023/01/27 01:16:58;;;;;;;25.20;12.52;;;;;;;1.68;100.00;101401.47;696406;28;1111;-62
2023/01/27 01:17:19;;;;;;;23.73;12.27;;;;;;;1.62;100.00;101408.06;693889;28;3436;-63
2023/01/27 01:17:40;;;;;;;24.23;12.13;;;;;;;1.66;100.00;101408.28;694245;28;939;-62
2023/01/27 01:18:00;;;;;;;23.73;11.77;;;;;;;1.64;100.00;101411.59;693862;28;1302;-63
2023/01/27 01:18:20;;;;;;;21.33;11.35;;;;;;;1.58;100.00;101409.66;694358;28;1119;-64
2023/01/27 01:18:42;;;;;;;23.93;12.37;;;;;;;1.59;100.00;101411.38;694536;28;4453;-63
2023/01/27 01:19:02;;;;;;;21.85;11.65;;;;;;;1.63;100.00;101408.13;693737;28;1478;-62
2023/01/27 01:19:23;;;;;;;21.87;11.90;;;;;;;1.53;100.00;101408.56;698100;28;1205;-62
2023/01/27 01:19:43;;;;;;;24.35;12.35;;;;;;;1.60;100.00;101409.72;696356;28;3573;-64
2023/01/27 01:20:04;;;;;;;22.47;11.77;;;;;;;1.62;100.00;101406.38;691449;28;1579;-64
2023/01/27 01:20:24;;;;;;;24.17;11.38;;;;;;;1.61;100.00;101404.63;692337;28;1210;-63
2023/01/27 01:20:46;;;;;;;22.00;10.67;;;;;;;1.56;100.00;101408.69;692263;28;1237;-64
2023/01/27 01:21:06;;;;;;;20.42;11.00;;;;;;;1.65;100.00;101409.09;691690;28;1323;-63
2023/01/27 01:21:26;;;;;;;20.83;11.38;;;;;;;1.62;100.00;101401.22;692204;28;1191;-63
2023/01/27 01:21:47;;;;;;;23.00;11.40;;;;;;;1.54;100.00;101405.16;692220;28;4329;-64
2023/01/27 01:22:07;;;;;;;21.67;11.73;;;;;;;1.55;100.00;101408.63;693475;28;1194;-63
2023/01/27 01:22:28;;;;;;;21.10;11.43;;;;;;;1.53;100.00;101408.56;693211;28;1257;-64
2023/01/27 01:22:48;;;;;;;20.63;12.00;;;;;;;1.62;100.00;101402.91;693058;28;1011;-63
2023/01/27 01:23:09;;;;;;;22.38;11.80;;;;;;;1.64;100.00;101399.59;693343;28;960;-63
2023/01/27 01:23:29;;;;;;;19.45;10.95;;;;;;;1.72;100.00;101406.75;692460;28;1952;-64
2023/01/27 01:23:50;;;;;;;17.67;10.30;;;;;;;1.66;100.00;101403.13;692378;28;1744;-63
2023/01/27 01:24:10;;;;;;;19.83;10.73;;;;;;;1.60;100.00;101410.56;691087;28;3847;-64
2023/01/27 01:24:31;;;;;;;21.57;10.93;;;;;;;1.58;100.00;101406.16;689398;28;1599;-65
2023/01/27 01:24:51;;;;;;;20.73;11.77;;;;;;;1.53;100.00;101408.56;686577;28;4444;-63
2023/01/27 01:25:11;;;;;;;21.70;11.53;;;;;;;1.55;100.00;101409.47;688978;28;1926;-63
2023/01/27 01:25:32;;;;;;;21.20;11.43;;;;;;;1.52;100.00;101406.78;691831;28;1257;-63
2023/01/27 01:25:54;;;;;;;23.00;11.70;;;;;;;1.52;100.00;101407.69;692378;28;1321;-63
2023/01/27 01:26:16;;;;;;;21.95;11.63;;;;;;;1.58;100.00;101412.22;688884;28;994;-64
2023/01/27 01:26:36;;;;;;;20.65;11.02;;;;;;;1.62;100.00;101416.69;688587;28;3493;-63
2023/01/27 01:26:57;;;;;;;19.07;10.73;;;;;;;1.58;100.00;101413.91;689461;28;1414;-64
2023/01/27 01:27:17;;;;;;;21.07;11.87;;;;;;;1.52;100.00;101414.50;689942;28;1143;-64
2023/01/27 01:27:37;;;;;;;21.50;11.70;;;;;;;1.53;100.00;101417.16;692014;28;1170;-64
2023/01/27 01:27:59;;;;;;;19.38;10.52;;;;;;;1.51;100.00;101417.94;694129;28;4257;-64
2023/01/27 01:28:20;;;;;;;22.13;11.48;;;;;;;1.67;100.00;101415.19;697257;28;1329;-64
2023/01/27 01:28:40;;;;;;;20.85;11.18;;;;;;;1.64;100.00;101415.06;700263;28;1133;-64
2023/01/27 01:29:01;;;;;;;23.20;11.87;;;;;;;1.69;100.00;101411.00;700102;28;1375;-62
2023/01/27 01:29:21;;;;;;;23.13;11.82;;;;;;;1.65;100.00;101414.25;698858;28;1489;-63
2023/01/27 01:29:41;;;;;;;21.10;11.90;;;;;;;1.66;100.00;101407.38;699054;28;3403;-64
2023/01/27 01:30:02;;;;;;;20.98;11.10;;;;;;;1.70;100.00;101414.44;696463;28;1147;-63
2023/01/27 01:30:25;;;;;;;23.47;11.23;;;;;;;1.70;100.00;101422.16;696520;28;1187;-64
2023/01/27 01:30:46;;;;;;;20.98;11.40;;;;;;;1.65;100.00;101416.81;697598;28;4469;-63
2023/01/27 01:31:09;;;;;;;20.73;11.27;;;;;;;1.61;100.00;101412.34;694159;28;1186;-63
2023/01/27 01:31:29;;;;;;;20.63;11.05;;;;;;;1.62;100.00;101411.53;691435;28;1496;-64
2023/01/27 01:31:50;;;;;;;20.95;11.48;;;;;;;1.66;100.00;101415.13;686963;28;1355;-63
2023/01/27 01:32:10;;;;;;;20.25;11.48;;;;;;;1.69;100.00;101417.84;687799;28;3600;-64
2023/01/27 01:32:31;;;;;;;21.53;11.40;;;;;;;1.64;100.00;101415.06;682104;28;1328;-64
2023/01/27 01:32:52;;;;;;;20.03;11.07;;;;;;;1.63;100.00;101412.41;683195;28;1393;-64
2023/01/27 01:33:13;;;;;;;18.38;11.20;;;;;;;1.68;100.00;101421.22;684691;28;1338;-64
2023/01/27 01:33:35;;;;;;;21.35;11.65;;;;;;;1.62;100.00;101406.38;683663;28;1503;-63
2023/01/27 01:33:55;;;;;;;21.13;11.60;;;;;;;1.66;100.00;101418.59;685874;28;4285;-64
2023/01/27 01:34:16;;;;;;;19.92;11.93;;;;;;;1.65;100.00;101416.81;684442;28;1377;-63
2023/01/27 01:34:37;;;;;;;21.30;11.32;;;;;;;1.74;100.00;101410.31;684216;28;1369;-62
2023/01/27 01:34:57;;;;;;;22.05;10.73;;;;;;;1.79;100.00;101408.81;688867;28;3556;-63
2023/01/27 01:35:19;;;;;;;20.93;10.80;;;;;;;1.77;100.00;101407.84;689767;28;1132;-64
2023/01/27 01:35:39;;;;;;;19.85;10.93;;;;;;;1.79;100.00;101413.97;692376;28;1158;-64
2023/01/27 01:36:04;;;;;;;21.13;10.48;;;;;;;1.68;100.00;101405.78;689704;28;1072;-63
2023/01/27 01:36:25;;;;;;;19.90;11.18;;;;;;;1.69;100.00;101412.69;692335;28;1112;-65
2023/01/27 01:36:45;;;;;;;18.37;11.17;;;;;;;1.62;100.00;101416.69;694691;28;4452;-64
2023/01/27 01:37:05;;;;;;;18.30;10.37;;;;;;;1.65;100.00;101405.66;697133;28;955;-62
2023/01/27 01:37:26;;;;;;;18.23;10.37;;;;;;;1.73;100.00;101413.69;697120;28;1130;-64
2023/01/27 01:37:46;;;;;;;18.55;10.43;;;;;;;1.69;100.00;101408.41;695402;28;1237;-63
2023/01/27 01:38:07;;;;;;;19.53;10.73;;;;;;;1.66;100.00;101412.53;694878;28;1041;-63
2023/01/27 01:38:27;;;;;;;21.97;10.70;;;;;;;1.67;100.00;101415.19;694812;28;1128;-64
2023/01/27 01:38:48;;;;;;;19.70;10.80;;;;;;;1.76;100.00;101416.41;695773;28;3731;-63
2023/01/27 01:39:08;;;;;;;19.77;11.07;;;;;;;1.70;100.00;101410.19;694373;28;1204;-64
2023/01/27 01:39:30;;;;;;;18.85;10.63;;;;;;;1.75;100.00;101409.50;693351;28;1180;-63
2023/01/27 01:39:50;;;;;;;18.83;10.10;;;;;;;1.69;100.00;101417.84;690172;28;4685;-64
2023/01/27 01:40:11;;;;;;;21.38;10.35;;;;;;;1.64;100.00;101412.47;691562;28;1369;-63
2023/01/27 01:40:32;;;;;;;20.02;10.35;;;;;;;1.61;100.00;101414.06;689880;28;1123;-63
2023/01/27 01:40:52;;;;;;;19.42;10.90;;;;;;;1.58;100.00;101414.78;690893;28;1128;-63
2023/01/27 01:41:17;;;;;;;19.90;10.57;;;;;;;1.66;100.00;101415.13;694265;28;1151;-63
2023/01/27 01:41:37;;;;;;;19.95;10.45;;;;;;;1.71;100.00;101408.47;695287;28;1469;-63
2023/01/27 01:41:58;;;;;;;22.13;10.60;;;;;;;1.67;100.00;101407.44;693387;28;1474;-64
2023/01/27 01:42:18;;;;;;;19.17;10.15;;;;;;;1.63;100.00;101413.28;693931;28;3296;-64
2023/01/27 01:42:54;;;;;;;18.93;10.47;;;;;;;1.78;100.00;101407.91;694556;28;1213;-64
2023/01/27 01:43:16;;;;;;;18.77;9.45;;;;;;;1.89;100.00;101415.25;692723;28;6356;-62
2023/01/27 01:43:37;;;;;;;18.52;9.70;;;;;;;1.81;100.00;101410.63;696576;28;1126;-64
2023/01/27 01:43:57;;;;;;;17.77;9.73;;;;;;;1.79;100.00;101416.56;694617;28;1083;-64
2023/01/27 01:44:29;;;;;;;18.42;9.75;;;;;;;1.84;100.00;101412.44;695125;28;1071;-64
2023/01/27 01:45:30;;;;;;;17.55;9.68;;;;;;;1.87;100.00;101417.75;694753;28;1122;-63
2023/01/27 01:45:53;;;;;;;16.20;9.90;;;;;;;1.83;100.00;101409.00;695243;28;4346;-64
2023/01/27 01:46:14;;;;;;;24.55;10.40;;;;;;;1.81;100.00;101407.16;696363;28;3367;-64
2023/01/27 01:46:34;;;;;;;24.80;10.57;;;;;;;1.81;100.00;101409.75;691330;28;1134;-63
2023/01/27 01:46:55;;;;;;;18.67;10.17;;;;;;;1.78;100.00;101407.91;691238;28;1573;-64
2023/01/27 01:47:18;;;;;;;19.10;10.10;;;;;;;1.81;100.00;101408.03;687327;28;1172;-65
2023/01/27 01:47:38;;;;;;;18.25;9.68;;;;;;;1.82;100.00;101411.53;689336;28;1292;-64
2023/01/27 01:48:02;;;;;;;17.90;9.87;;;;;;;1.81;100.00;101414.91;688292;28;1117;-64
2023/01/27 01:48:36;;;;;;;19.33;10.25;;;;;;;1.74;100.00;101408.59;687846;28;1180;-65
2023/01/27 01:49:01;;;;;;;16.67;9.07;;;;;;;1.66;100.00;101405.72;687900;28;4246;-63
2023/01/27 01:49:29;;;;;;;18.13;10.15;;;;;;;1.67;100.00;101417.75;689898;28;2231;-64